sensor_id;sensor_type;location;lat;lon;timestamp;P1;durP1;ratioP1;P2;durP2;ratioP2
9675;SDS011;4876;42.656;23.292;2022-10-18T00:01:03;7.13;;;4.47;;
9675;SDS011;4876;42.656;23.292;2022-10-18T00:03:31;5.67;;;3.67;;
9675;SDS011;4876;42.656;23.292;2022-10-18T00:05:59;5.50;;;4.07;;
9675;SDS011;4876;42.656;23.292;2022-10-18T00:08:28;5.97;;;4.27;;
9675;SDS011;4876;42.656;23.292;2022-10-18T00:10:55;8.27;;;4.50;;
9675;SDS011;4876;42.656;23.292;2022-10-18T00:13:22;9.90;;;4.17;;
9675;SDS011;4876;42.656;23.292;2022-10-18T00:15:49;4.40;;;3.40;;
9675;SDS011;4876;42.656;23.292;2022-10-18T00:18:17;6.27;;;3.73;;
9675;SDS011;4876;42.656;23.292;2022-10-18T00:20:44;6.93;;;4.13;;
9675;SDS011;4876;42.656;23.292;2022-10-18T00:23:11;5.90;;;4.10;;
9675;SDS011;4876;42.656;23.292;2022-10-18T00:25:39;5.20;;;4.30;;
9675;SDS011;4876;42.656;23.292;2022-10-18T00:28:06;9.80;;;3.80;;
9675;SDS011;4876;42.656;23.292;2022-10-18T00:30:33;6.03;;;3.80;;
9675;SDS011;4876;42.656;23.292;2022-10-18T00:32:59;7.13;;;3.83;;
9675;SDS011;4876;42.656;23.292;2022-10-18T00:35:26;7.73;;;4.10;;
9675;SDS011;4876;42.656;23.292;2022-10-18T00:37:53;6.27;;;4.03;;
9675;SDS011;4876;42.656;23.292;2022-10-18T00:40:20;5.70;;;4.00;;
9675;SDS011;4876;42.656;23.292;2022-10-18T00:42:48;5.77;;;3.80;;
9675;SDS011;4876;42.656;23.292;2022-10-18T00:45:17;4.90;;;4.07;;
9675;SDS011;4876;42.656;23.292;2022-10-18T00:47:46;8.83;;;3.70;;
9675;SDS011;4876;42.656;23.292;2022-10-18T00:50:17;7.53;;;4.67;;
9675;SDS011;4876;42.656;23.292;2022-10-18T00:52:46;6.80;;;4.00;;
9675;SDS011;4876;42.656;23.292;2022-10-18T00:55:16;5.77;;;3.57;;
9675;SDS011;4876;42.656;23.292;2022-10-18T00:57:43;5.53;;;3.93;;
9675;SDS011;4876;42.656;23.292;2022-10-18T01:00:12;5.47;;;3.73;;
9675;SDS011;4876;42.656;23.292;2022-10-18T01:02:40;6.70;;;3.73;;
9675;SDS011;4876;42.656;23.292;2022-10-18T01:05:09;6.07;;;3.63;;
9675;SDS011;4876;42.656;23.292;2022-10-18T01:07:41;5.40;;;3.50;;
9675;SDS011;4876;42.656;23.292;2022-10-18T01:10:25;4.27;;;3.40;;
9675;SDS011;4876;42.656;23.292;2022-10-18T01:13:00;6.50;;;3.80;;
9675;SDS011;4876;42.656;23.292;2022-10-18T01:15:38;5.57;;;3.20;;
9675;SDS011;4876;42.656;23.292;2022-10-18T01:18:16;7.33;;;4.33;;
9675;SDS011;4876;42.656;23.292;2022-10-18T01:23:56;5.40;;;3.60;;
9675;SDS011;4876;42.656;23.292;2022-10-18T01:26:46;7.60;;;4.17;;
9675;SDS011;4876;42.656;23.292;2022-10-18T01:29:29;5.33;;;3.50;;
9675;SDS011;4876;42.656;23.292;2022-10-18T01:32:20;6.83;;;4.30;;
9675;SDS011;4876;42.656;23.292;2022-10-18T01:34:51;7.13;;;3.30;;
9675;SDS011;4876;42.656;23.292;2022-10-18T01:37:21;7.40;;;3.70;;
9675;SDS011;4876;42.656;23.292;2022-10-18T01:39:52;5.37;;;3.80;;
9675;SDS011;4876;42.656;23.292;2022-10-18T01:42:21;9.40;;;4.20;;
9675;SDS011;4876;42.656;23.292;2022-10-18T01:44:48;4.13;;;3.30;;
9675;SDS011;4876;42.656;23.292;2022-10-18T01:47:17;5.13;;;3.93;;
9675;SDS011;4876;42.656;23.292;2022-10-18T01:49:46;6.80;;;4.37;;
9675;SDS011;4876;42.656;23.292;2022-10-18T01:52:13;6.17;;;3.77;;
9675;SDS011;4876;42.656;23.292;2022-10-18T01:54:42;9.13;;;4.00;;
9675;SDS011;4876;42.656;23.292;2022-10-18T01:57:15;7.03;;;3.80;;
9675;SDS011;4876;42.656;23.292;2022-10-18T01:59:50;8.00;;;3.90;;
9675;SDS011;4876;42.656;23.292;2022-10-18T02:02:32;6.30;;;3.70;;
9675;SDS011;4876;42.656;23.292;2022-10-18T02:05:10;5.10;;;3.40;;
9675;SDS011;4876;42.656;23.292;2022-10-18T02:07:46;8.80;;;3.73;;
9675;SDS011;4876;42.656;23.292;2022-10-18T02:10:17;7.37;;;3.30;;
9675;SDS011;4876;42.656;23.292;2022-10-18T02:12:50;4.27;;;3.40;;
9675;SDS011;4876;42.656;23.292;2022-10-18T02:15:21;4.10;;;3.10;;
9675;SDS011;4876;42.656;23.292;2022-10-18T02:17:51;4.80;;;2.97;;
9675;SDS011;4876;42.656;23.292;2022-10-18T02:20:21;5.50;;;3.37;;
9675;SDS011;4876;42.656;23.292;2022-10-18T02:22:50;4.80;;;3.20;;
9675;SDS011;4876;42.656;23.292;2022-10-18T02:25:21;5.97;;;3.63;;
9675;SDS011;4876;42.656;23.292;2022-10-18T02:27:50;5.33;;;3.13;;
9675;SDS011;4876;42.656;23.292;2022-10-18T02:30:17;5.90;;;3.70;;
9675;SDS011;4876;42.656;23.292;2022-10-18T02:32:46;5.60;;;3.43;;
9675;SDS011;4876;42.656;23.292;2022-10-18T02:35:21;5.33;;;3.80;;
9675;SDS011;4876;42.656;23.292;2022-10-18T02:37:51;6.57;;;3.90;;
9675;SDS011;4876;42.656;23.292;2022-10-18T02:40:20;6.97;;;3.90;;
9675;SDS011;4876;42.656;23.292;2022-10-18T02:42:47;10.80;;;4.20;;
9675;SDS011;4876;42.656;23.292;2022-10-18T02:45:15;7.40;;;4.10;;
9675;SDS011;4876;42.656;23.292;2022-10-18T02:47:42;6.77;;;4.10;;
9675;SDS011;4876;42.656;23.292;2022-10-18T02:50:09;6.53;;;4.00;;
9675;SDS011;4876;42.656;23.292;2022-10-18T02:52:38;6.43;;;4.07;;
9675;SDS011;4876;42.656;23.292;2022-10-18T02:55:05;6.80;;;3.70;;
9675;SDS011;4876;42.656;23.292;2022-10-18T02:57:32;10.07;;;4.37;;
9675;SDS011;4876;42.656;23.292;2022-10-18T02:59:59;7.10;;;4.20;;
9675;SDS011;4876;42.656;23.292;2022-10-18T03:02:26;5.93;;;3.97;;
9675;SDS011;4876;42.656;23.292;2022-10-18T03:04:52;6.77;;;3.90;;
9675;SDS011;4876;42.656;23.292;2022-10-18T03:07:19;7.43;;;4.30;;
9675;SDS011;4876;42.656;23.292;2022-10-18T03:09:47;6.83;;;4.43;;
9675;SDS011;4876;42.656;23.292;2022-10-18T03:12:14;6.67;;;4.30;;
9675;SDS011;4876;42.656;23.292;2022-10-18T03:14:41;6.73;;;4.30;;
9675;SDS011;4876;42.656;23.292;2022-10-18T03:17:08;5.70;;;4.33;;
9675;SDS011;4876;42.656;23.292;2022-10-18T03:19:35;5.83;;;4.40;;
9675;SDS011;4876;42.656;23.292;2022-10-18T03:22:03;6.77;;;4.93;;
9675;SDS011;4876;42.656;23.292;2022-10-18T03:24:30;7.37;;;3.93;;
9675;SDS011;4876;42.656;23.292;2022-10-18T03:26:58;7.20;;;4.00;;
9675;SDS011;4876;42.656;23.292;2022-10-18T03:29:25;5.30;;;3.87;;
9675;SDS011;4876;42.656;23.292;2022-10-18T03:31:52;8.83;;;4.17;;
9675;SDS011;4876;42.656;23.292;2022-10-18T03:34:19;4.60;;;3.70;;
9675;SDS011;4876;42.656;23.292;2022-10-18T03:36:46;6.63;;;4.80;;
9675;SDS011;4876;42.656;23.292;2022-10-18T03:39:13;7.57;;;4.70;;
9675;SDS011;4876;42.656;23.292;2022-10-18T03:41:39;10.20;;;4.57;;
9675;SDS011;4876;42.656;23.292;2022-10-18T03:44:08;6.60;;;4.37;;
9675;SDS011;4876;42.656;23.292;2022-10-18T03:46:35;7.20;;;4.23;;
9675;SDS011;4876;42.656;23.292;2022-10-18T03:49:01;7.27;;;4.40;;
9675;SDS011;4876;42.656;23.292;2022-10-18T03:51:28;7.63;;;4.10;;
9675;SDS011;4876;42.656;23.292;2022-10-18T03:53:55;5.53;;;4.47;;
9675;SDS011;4876;42.656;23.292;2022-10-18T03:56:22;9.83;;;4.40;;
9675;SDS011;4876;42.656;23.292;2022-10-18T03:58:48;7.83;;;4.57;;
9675;SDS011;4876;42.656;23.292;2022-10-18T04:01:17;6.53;;;4.93;;
9675;SDS011;4876;42.656;23.292;2022-10-18T04:03:43;5.90;;;4.43;;
9675;SDS011;4876;42.656;23.292;2022-10-18T04:06:10;7.10;;;4.40;;
9675;SDS011;4876;42.656;23.292;2022-10-18T04:08:37;7.20;;;4.63;;
9675;SDS011;4876;42.656;23.292;2022-10-18T04:11:04;11.57;;;5.47;;
9675;SDS011;4876;42.656;23.292;2022-10-18T04:13:33;14.53;;;6.63;;
9675;SDS011;4876;42.656;23.292;2022-10-18T04:16:00;14.53;;;6.30;;
9675;SDS011;4876;42.656;23.292;2022-10-18T04:18:29;16.53;;;7.60;;
9675;SDS011;4876;42.656;23.292;2022-10-18T04:20:56;22.80;;;8.03;;
9675;SDS011;4876;42.656;23.292;2022-10-18T04:23:22;9.83;;;5.57;;
9675;SDS011;4876;42.656;23.292;2022-10-18T04:25:49;11.33;;;5.33;;
9675;SDS011;4876;42.656;23.292;2022-10-18T04:28:16;10.37;;;4.80;;
9675;SDS011;4876;42.656;23.292;2022-10-18T04:30:43;6.23;;;4.83;;
9675;SDS011;4876;42.656;23.292;2022-10-18T04:33:15;9.53;;;4.63;;
9675;SDS011;4876;42.656;23.292;2022-10-18T04:35:43;9.17;;;5.17;;
9675;SDS011;4876;42.656;23.292;2022-10-18T04:38:10;7.50;;;4.97;;
9675;SDS011;4876;42.656;23.292;2022-10-18T04:40:38;8.10;;;5.07;;
9675;SDS011;4876;42.656;23.292;2022-10-18T04:43:05;9.43;;;5.00;;
9675;SDS011;4876;42.656;23.292;2022-10-18T04:45:32;11.63;;;4.97;;
9675;SDS011;4876;42.656;23.292;2022-10-18T04:47:59;11.13;;;5.70;;
9675;SDS011;4876;42.656;23.292;2022-10-18T04:50:26;8.00;;;4.83;;
9675;SDS011;4876;42.656;23.292;2022-10-18T04:52:54;9.00;;;5.77;;
9675;SDS011;4876;42.656;23.292;2022-10-18T04:55:21;8.20;;;5.17;;
9675;SDS011;4876;42.656;23.292;2022-10-18T04:57:47;9.87;;;5.70;;
9675;SDS011;4876;42.656;23.292;2022-10-18T05:00:14;8.20;;;5.77;;
9675;SDS011;4876;42.656;23.292;2022-10-18T05:02:42;17.90;;;6.53;;
9675;SDS011;4876;42.656;23.292;2022-10-18T05:05:08;19.83;;;7.20;;
9675;SDS011;4876;42.656;23.292;2022-10-18T05:07:35;15.10;;;6.40;;
9675;SDS011;4876;42.656;23.292;2022-10-18T05:10:04;17.70;;;6.10;;
9675;SDS011;4876;42.656;23.292;2022-10-18T05:12:31;20.50;;;6.30;;
9675;SDS011;4876;42.656;23.292;2022-10-18T05:14:58;13.90;;;6.00;;
9675;SDS011;4876;42.656;23.292;2022-10-18T05:17:24;12.20;;;6.13;;
9675;SDS011;4876;42.656;23.292;2022-10-18T05:19:51;14.13;;;6.67;;
9675;SDS011;4876;42.656;23.292;2022-10-18T05:22:18;11.00;;;6.13;;
9675;SDS011;4876;42.656;23.292;2022-10-18T05:24:45;15.33;;;6.70;;
9675;SDS011;4876;42.656;23.292;2022-10-18T05:27:13;10.63;;;6.20;;
9675;SDS011;4876;42.656;23.292;2022-10-18T05:29:40;9.50;;;6.40;;
9675;SDS011;4876;42.656;23.292;2022-10-18T05:32:06;16.10;;;6.43;;
9675;SDS011;4876;42.656;23.292;2022-10-18T05:34:33;22.13;;;6.47;;
9675;SDS011;4876;42.656;23.292;2022-10-18T05:37:00;11.73;;;6.10;;
9675;SDS011;4876;42.656;23.292;2022-10-18T05:39:27;12.63;;;7.03;;
9675;SDS011;4876;42.656;23.292;2022-10-18T05:41:53;20.00;;;6.23;;
9675;SDS011;4876;42.656;23.292;2022-10-18T05:44:22;10.23;;;5.60;;
9675;SDS011;4876;42.656;23.292;2022-10-18T05:46:48;10.60;;;5.30;;
9675;SDS011;4876;42.656;23.292;2022-10-18T05:49:15;9.23;;;5.07;;
9675;SDS011;4876;42.656;23.292;2022-10-18T05:51:42;9.60;;;5.57;;
9675;SDS011;4876;42.656;23.292;2022-10-18T05:54:09;9.20;;;5.07;;
9675;SDS011;4876;42.656;23.292;2022-10-18T05:56:37;6.63;;;5.23;;
9675;SDS011;4876;42.656;23.292;2022-10-18T05:59:04;9.20;;;5.33;;
9675;SDS011;4876;42.656;23.292;2022-10-18T06:01:38;11.57;;;5.17;;
9675;SDS011;4876;42.656;23.292;2022-10-18T06:04:06;8.43;;;6.07;;
9675;SDS011;4876;42.656;23.292;2022-10-18T06:06:34;9.33;;;5.30;;
9675;SDS011;4876;42.656;23.292;2022-10-18T06:09:02;10.13;;;5.03;;
9675;SDS011;4876;42.656;23.292;2022-10-18T06:11:29;12.33;;;5.33;;
9675;SDS011;4876;42.656;23.292;2022-10-18T06:13:56;7.37;;;5.17;;
9675;SDS011;4876;42.656;23.292;2022-10-18T06:16:24;10.67;;;5.00;;
9675;SDS011;4876;42.656;23.292;2022-10-18T06:18:55;15.50;;;6.27;;
9675;SDS011;4876;42.656;23.292;2022-10-18T06:21:24;11.77;;;6.23;;
9675;SDS011;4876;42.656;23.292;2022-10-18T06:23:52;9.83;;;5.33;;
9675;SDS011;4876;42.656;23.292;2022-10-18T06:26:20;7.87;;;4.90;;
9675;SDS011;4876;42.656;23.292;2022-10-18T06:28:47;9.83;;;5.30;;
9675;SDS011;4876;42.656;23.292;2022-10-18T06:31:14;7.10;;;4.83;;
9675;SDS011;4876;42.656;23.292;2022-10-18T06:33:41;6.60;;;5.17;;
9675;SDS011;4876;42.656;23.292;2022-10-18T06:36:12;7.17;;;4.70;;
9675;SDS011;4876;42.656;23.292;2022-10-18T06:38:40;7.77;;;4.73;;
9675;SDS011;4876;42.656;23.292;2022-10-18T06:41:07;10.57;;;5.73;;
9675;SDS011;4876;42.656;23.292;2022-10-18T06:43:34;7.70;;;5.77;;
9675;SDS011;4876;42.656;23.292;2022-10-18T06:46:02;13.60;;;6.17;;
9675;SDS011;4876;42.656;23.292;2022-10-18T06:48:32;8.60;;;5.93;;
9675;SDS011;4876;42.656;23.292;2022-10-18T06:51:00;8.50;;;6.23;;
9675;SDS011;4876;42.656;23.292;2022-10-18T06:53:30;7.70;;;6.23;;
9675;SDS011;4876;42.656;23.292;2022-10-18T06:55:58;7.67;;;5.77;;
9675;SDS011;4876;42.656;23.292;2022-10-18T06:58:26;10.30;;;5.80;;
9675;SDS011;4876;42.656;23.292;2022-10-18T07:00:53;14.00;;;5.53;;
9675;SDS011;4876;42.656;23.292;2022-10-18T07:03:20;7.83;;;5.47;;
9675;SDS011;4876;42.656;23.292;2022-10-18T07:05:47;9.73;;;5.70;;
9675;SDS011;4876;42.656;23.292;2022-10-18T07:08:13;11.67;;;5.97;;
9675;SDS011;4876;42.656;23.292;2022-10-18T07:10:42;10.27;;;5.87;;
9675;SDS011;4876;42.656;23.292;2022-10-18T07:13:16;17.27;;;6.23;;
9675;SDS011;4876;42.656;23.292;2022-10-18T07:15:43;10.33;;;6.30;;
9675;SDS011;4876;42.656;23.292;2022-10-18T07:18:10;9.97;;;6.23;;
9675;SDS011;4876;42.656;23.292;2022-10-18T07:20:37;13.00;;;6.23;;
9675;SDS011;4876;42.656;23.292;2022-10-18T07:23:03;9.30;;;6.03;;
9675;SDS011;4876;42.656;23.292;2022-10-18T07:25:32;12.53;;;6.17;;
9675;SDS011;4876;42.656;23.292;2022-10-18T07:28:00;10.43;;;6.63;;
9675;SDS011;4876;42.656;23.292;2022-10-18T07:30:27;8.73;;;5.90;;
9675;SDS011;4876;42.656;23.292;2022-10-18T07:32:54;8.37;;;7.03;;
9675;SDS011;4876;42.656;23.292;2022-10-18T07:35:21;13.73;;;7.63;;
9675;SDS011;4876;42.656;23.292;2022-10-18T07:37:47;22.10;;;7.63;;
9675;SDS011;4876;42.656;23.292;2022-10-18T07:40:14;8.10;;;6.87;;
9675;SDS011;4876;42.656;23.292;2022-10-18T07:42:41;8.57;;;6.23;;
9675;SDS011;4876;42.656;23.292;2022-10-18T07:45:09;10.53;;;7.47;;
9675;SDS011;4876;42.656;23.292;2022-10-18T07:47:37;10.90;;;7.43;;
9675;SDS011;4876;42.656;23.292;2022-10-18T07:50:05;25.00;;;8.10;;
9675;SDS011;4876;42.656;23.292;2022-10-18T07:52:32;12.77;;;8.00;;
9675;SDS011;4876;42.656;23.292;2022-10-18T07:54:59;12.93;;;9.20;;
9675;SDS011;4876;42.656;23.292;2022-10-18T07:57:26;14.57;;;9.07;;
9675;SDS011;4876;42.656;23.292;2022-10-18T07:59:53;13.10;;;8.40;;
9675;SDS011;4876;42.656;23.292;2022-10-18T08:02:22;17.00;;;9.90;;
9675;SDS011;4876;42.656;23.292;2022-10-18T08:04:49;16.67;;;9.43;;
9675;SDS011;4876;42.656;23.292;2022-10-18T08:07:16;14.40;;;9.43;;
9675;SDS011;4876;42.656;23.292;2022-10-18T08:09:43;13.13;;;9.53;;
9675;SDS011;4876;42.656;23.292;2022-10-18T08:12:10;13.50;;;9.00;;
9675;SDS011;4876;42.656;23.292;2022-10-18T08:14:37;15.73;;;10.30;;
9675;SDS011;4876;42.656;23.292;2022-10-18T08:17:04;14.00;;;8.47;;
9675;SDS011;4876;42.656;23.292;2022-10-18T08:19:32;18.20;;;9.63;;
9675;SDS011;4876;42.656;23.292;2022-10-18T08:21:59;20.07;;;10.03;;
9675;SDS011;4876;42.656;23.292;2022-10-18T08:24:25;15.40;;;9.03;;
9675;SDS011;4876;42.656;23.292;2022-10-18T08:26:52;11.43;;;7.97;;
9675;SDS011;4876;42.656;23.292;2022-10-18T08:29:19;11.27;;;8.77;;
9675;SDS011;4876;42.656;23.292;2022-10-18T08:31:45;14.87;;;9.53;;
9675;SDS011;4876;42.656;23.292;2022-10-18T08:34:14;13.93;;;9.40;;
9675;SDS011;4876;42.656;23.292;2022-10-18T08:36:43;18.93;;;9.63;;
9675;SDS011;4876;42.656;23.292;2022-10-18T08:39:09;14.90;;;9.53;;
9675;SDS011;4876;42.656;23.292;2022-10-18T08:41:45;14.97;;;9.37;;
9675;SDS011;4876;42.656;23.292;2022-10-18T08:44:23;20.67;;;9.83;;
9675;SDS011;4876;42.656;23.292;2022-10-18T08:46:54;17.10;;;10.20;;
9675;SDS011;4876;42.656;23.292;2022-10-18T08:49:25;17.10;;;9.70;;
9675;SDS011;4876;42.656;23.292;2022-10-18T08:51:56;13.80;;;9.30;;
9675;SDS011;4876;42.656;23.292;2022-10-18T08:54:25;15.27;;;10.43;;
9675;SDS011;4876;42.656;23.292;2022-10-18T08:56:58;16.27;;;8.93;;
9675;SDS011;4876;42.656;23.292;2022-10-18T08:59:28;13.47;;;9.47;;
9675;SDS011;4876;42.656;23.292;2022-10-18T09:02:04;15.97;;;10.53;;
9675;SDS011;4876;42.656;23.292;2022-10-18T09:04:44;15.43;;;9.70;;
9675;SDS011;4876;42.656;23.292;2022-10-18T09:07:20;15.63;;;9.63;;
9675;SDS011;4876;42.656;23.292;2022-10-18T09:10:02;14.90;;;10.23;;
9675;SDS011;4876;42.656;23.292;2022-10-18T09:12:41;25.40;;;10.23;;
9675;SDS011;4876;42.656;23.292;2022-10-18T09:15:24;15.73;;;11.10;;
9675;SDS011;4876;42.656;23.292;2022-10-18T09:18:01;15.70;;;10.20;;
9675;SDS011;4876;42.656;23.292;2022-10-18T09:20:37;17.40;;;10.37;;
9675;SDS011;4876;42.656;23.292;2022-10-18T09:23:17;14.43;;;10.20;;
9675;SDS011;4876;42.656;23.292;2022-10-18T09:25:46;16.33;;;10.77;;
9675;SDS011;4876;42.656;23.292;2022-10-18T09:28:15;16.93;;;10.50;;
9675;SDS011;4876;42.656;23.292;2022-10-18T09:30:51;14.73;;;10.27;;
9675;SDS011;4876;42.656;23.292;2022-10-18T09:33:27;18.70;;;10.37;;
9675;SDS011;4876;42.656;23.292;2022-10-18T09:36:02;14.77;;;10.27;;
9675;SDS011;4876;42.656;23.292;2022-10-18T09:38:35;15.53;;;10.07;;
9675;SDS011;4876;42.656;23.292;2022-10-18T09:41:08;13.97;;;9.23;;
9675;SDS011;4876;42.656;23.292;2022-10-18T09:43:42;12.60;;;9.10;;
9675;SDS011;4876;42.656;23.292;2022-10-18T09:46:14;16.57;;;10.60;;
9675;SDS011;4876;42.656;23.292;2022-10-18T09:48:45;13.47;;;9.90;;
9675;SDS011;4876;42.656;23.292;2022-10-18T09:51:17;13.67;;;9.63;;
9675;SDS011;4876;42.656;23.292;2022-10-18T09:53:56;12.27;;;8.80;;
9675;SDS011;4876;42.656;23.292;2022-10-18T09:56:29;15.90;;;9.40;;
9675;SDS011;4876;42.656;23.292;2022-10-18T09:59:01;11.23;;;8.67;;
9675;SDS011;4876;42.656;23.292;2022-10-18T10:01:28;14.03;;;8.93;;
9675;SDS011;4876;42.656;23.292;2022-10-18T10:03:57;12.77;;;7.70;;
9675;SDS011;4876;42.656;23.292;2022-10-18T10:06:25;14.90;;;8.80;;
9675;SDS011;4876;42.656;23.292;2022-10-18T10:08:56;11.50;;;7.80;;
9675;SDS011;4876;42.656;23.292;2022-10-18T10:11:29;12.53;;;8.40;;
9675;SDS011;4876;42.656;23.292;2022-10-18T10:14:05;10.93;;;7.73;;
9675;SDS011;4876;42.656;23.292;2022-10-18T10:16:36;14.00;;;8.00;;
9675;SDS011;4876;42.656;23.292;2022-10-18T10:19:14;13.23;;;7.83;;
9675;SDS011;4876;42.656;23.292;2022-10-18T10:21:42;10.60;;;6.50;;
9675;SDS011;4876;42.656;23.292;2022-10-18T10:24:15;12.27;;;7.27;;
9675;SDS011;4876;42.656;23.292;2022-10-18T10:26:47;13.00;;;6.33;;
9675;SDS011;4876;42.656;23.292;2022-10-18T10:32:21;10.03;;;6.10;;
9675;SDS011;4876;42.656;23.292;2022-10-18T10:34:49;10.67;;;6.23;;
9675;SDS011;4876;42.656;23.292;2022-10-18T10:37:27;8.93;;;5.70;;
9675;SDS011;4876;42.656;23.292;2022-10-18T10:40:09;8.37;;;6.20;;
9675;SDS011;4876;42.656;23.292;2022-10-18T10:43:03;11.57;;;6.20;;
9675;SDS011;4876;42.656;23.292;2022-10-18T10:45:33;11.93;;;5.93;;
9675;SDS011;4876;42.656;23.292;2022-10-18T10:48:04;10.87;;;6.00;;
9675;SDS011;4876;42.656;23.292;2022-10-18T10:50:46;10.67;;;6.10;;
9675;SDS011;4876;42.656;23.292;2022-10-18T10:53:33;8.63;;;6.23;;
9675;SDS011;4876;42.656;23.292;2022-10-18T10:56:11;6.97;;;4.77;;
9675;SDS011;4876;42.656;23.292;2022-10-18T10:58:42;13.50;;;5.40;;
9675;SDS011;4876;42.656;23.292;2022-10-18T11:01:16;8.37;;;5.03;;
9675;SDS011;4876;42.656;23.292;2022-10-18T11:03:46;14.17;;;5.53;;
9675;SDS011;4876;42.656;23.292;2022-10-18T11:06:25;8.87;;;5.90;;
9675;SDS011;4876;42.656;23.292;2022-10-18T11:08:57;10.27;;;5.90;;
9675;SDS011;4876;42.656;23.292;2022-10-18T11:11:29;11.30;;;5.53;;
9675;SDS011;4876;42.656;23.292;2022-10-18T11:14:02;11.10;;;4.67;;
9675;SDS011;4876;42.656;23.292;2022-10-18T11:16:35;9.30;;;4.77;;
9675;SDS011;4876;42.656;23.292;2022-10-18T11:19:09;11.93;;;5.10;;
9675;SDS011;4876;42.656;23.292;2022-10-18T11:21:46;8.97;;;4.83;;
9675;SDS011;4876;42.656;23.292;2022-10-18T11:24:14;4.93;;;4.30;;
9675;SDS011;4876;42.656;23.292;2022-10-18T11:26:45;10.53;;;5.00;;
9675;SDS011;4876;42.656;23.292;2022-10-18T11:29:22;7.67;;;4.80;;
9675;SDS011;4876;42.656;23.292;2022-10-18T11:32:07;5.60;;;4.30;;
9675;SDS011;4876;42.656;23.292;2022-10-18T11:34:46;9.53;;;4.17;;
9675;SDS011;4876;42.656;23.292;2022-10-18T11:37:28;7.90;;;4.40;;
9675;SDS011;4876;42.656;23.292;2022-10-18T11:40:08;6.10;;;5.03;;
9675;SDS011;4876;42.656;23.292;2022-10-18T11:42:54;7.73;;;4.47;;
9675;SDS011;4876;42.656;23.292;2022-10-18T11:45:28;4.73;;;3.40;;
9675;SDS011;4876;42.656;23.292;2022-10-18T11:48:07;9.03;;;4.20;;
9675;SDS011;4876;42.656;23.292;2022-10-18T11:50:49;5.97;;;3.90;;
9675;SDS011;4876;42.656;23.292;2022-10-18T11:53:24;5.57;;;3.83;;
9675;SDS011;4876;42.656;23.292;2022-10-18T11:56:01;7.70;;;4.40;;
9675;SDS011;4876;42.656;23.292;2022-10-18T11:58:49;9.17;;;3.33;;
9675;SDS011;4876;42.656;23.292;2022-10-18T12:01:26;5.67;;;3.93;;
9675;SDS011;4876;42.656;23.292;2022-10-18T12:04:00;7.03;;;3.90;;
9675;SDS011;4876;42.656;23.292;2022-10-18T12:06:31;6.57;;;3.33;;
9675;SDS011;4876;42.656;23.292;2022-10-18T12:09:01;6.03;;;3.37;;
9675;SDS011;4876;42.656;23.292;2022-10-18T12:11:35;4.13;;;3.37;;
9675;SDS011;4876;42.656;23.292;2022-10-18T12:14:13;5.57;;;3.17;;
9675;SDS011;4876;42.656;23.292;2022-10-18T12:16:52;4.63;;;3.20;;
9675;SDS011;4876;42.656;23.292;2022-10-18T12:19:24;8.13;;;3.50;;
9675;SDS011;4876;42.656;23.292;2022-10-18T12:21:53;11.03;;;3.40;;
9675;SDS011;4876;42.656;23.292;2022-10-18T12:24:22;4.27;;;3.10;;
9675;SDS011;4876;42.656;23.292;2022-10-18T12:26:56;4.33;;;2.90;;
9675;SDS011;4876;42.656;23.292;2022-10-18T12:29:26;4.73;;;2.90;;
9675;SDS011;4876;42.656;23.292;2022-10-18T12:31:57;7.70;;;3.30;;
9675;SDS011;4876;42.656;23.292;2022-10-18T12:34:29;4.97;;;2.60;;
9675;SDS011;4876;42.656;23.292;2022-10-18T12:39:56;4.20;;;2.97;;
9675;SDS011;4876;42.656;23.292;2022-10-18T12:42:28;9.17;;;2.60;;
9675;SDS011;4876;42.656;23.292;2022-10-18T12:45:03;2.93;;;1.83;;
9675;SDS011;4876;42.656;23.292;2022-10-18T12:47:42;3.43;;;2.30;;
9675;SDS011;4876;42.656;23.292;2022-10-18T12:50:21;4.67;;;2.37;;
9675;SDS011;4876;42.656;23.292;2022-10-18T12:53:00;4.23;;;2.80;;
9675;SDS011;4876;42.656;23.292;2022-10-18T12:55:30;3.43;;;2.63;;
9675;SDS011;4876;42.656;23.292;2022-10-18T12:58:03;7.90;;;3.80;;
9675;SDS011;4876;42.656;23.292;2022-10-18T13:00:53;7.80;;;3.20;;
9675;SDS011;4876;42.656;23.292;2022-10-18T13:06:26;1.97;;;1.77;;
9675;SDS011;4876;42.656;23.292;2022-10-18T13:09:33;3.70;;;1.40;;
9675;SDS011;4876;42.656;23.292;2022-10-18T13:15:19;1.70;;;1.40;;
9675;SDS011;4876;42.656;23.292;2022-10-18T13:18:02;1.20;;;1.10;;
9675;SDS011;4876;42.656;23.292;2022-10-18T13:20:41;1.10;;;1.00;;
9675;SDS011;4876;42.656;23.292;2022-10-18T13:23:21;1.70;;;1.57;;
9675;SDS011;4876;42.656;23.292;2022-10-18T13:26:02;2.67;;;1.93;;
9675;SDS011;4876;42.656;23.292;2022-10-18T13:28:39;3.50;;;2.50;;
9675;SDS011;4876;42.656;23.292;2022-10-18T13:31:13;5.00;;;1.93;;
9675;SDS011;4876;42.656;23.292;2022-10-18T13:33:47;2.63;;;1.87;;
9675;SDS011;4876;42.656;23.292;2022-10-18T13:36:21;2.60;;;1.27;;
9675;SDS011;4876;42.656;23.292;2022-10-18T13:39:00;3.47;;;1.50;;
9675;SDS011;4876;42.656;23.292;2022-10-18T13:41:30;2.47;;;1.93;;
9675;SDS011;4876;42.656;23.292;2022-10-18T13:44:22;1.10;;;1.00;;
9675;SDS011;4876;42.656;23.292;2022-10-18T13:50:08;1.43;;;1.20;;
9675;SDS011;4876;42.656;23.292;2022-10-18T13:55:56;1.90;;;1.20;;
9675;SDS011;4876;42.656;23.292;2022-10-18T13:58:38;1.43;;;1.20;;
9675;SDS011;4876;42.656;23.292;2022-10-18T14:01:17;2.60;;;1.90;;
9675;SDS011;4876;42.656;23.292;2022-10-18T14:04:05;3.60;;;2.70;;
9675;SDS011;4876;42.656;23.292;2022-10-18T14:06:49;8.43;;;3.57;;
9675;SDS011;4876;42.656;23.292;2022-10-18T14:09:18;6.63;;;2.83;;
9675;SDS011;4876;42.656;23.292;2022-10-18T14:11:51;6.20;;;2.53;;
9675;SDS011;4876;42.656;23.292;2022-10-18T14:14:22;3.60;;;2.53;;
9675;SDS011;4876;42.656;23.292;2022-10-18T14:16:55;11.73;;;2.60;;
9675;SDS011;4876;42.656;23.292;2022-10-18T14:19:32;10.77;;;2.97;;
9675;SDS011;4876;42.656;23.292;2022-10-18T14:22:12;9.50;;;2.43;;
9675;SDS011;4876;42.656;23.292;2022-10-18T14:24:44;4.83;;;2.23;;
9675;SDS011;4876;42.656;23.292;2022-10-18T14:27:16;7.07;;;2.67;;
9675;SDS011;4876;42.656;23.292;2022-10-18T14:29:44;6.00;;;2.00;;
9675;SDS011;4876;42.656;23.292;2022-10-18T14:32:17;6.87;;;2.40;;
9675;SDS011;4876;42.656;23.292;2022-10-18T14:34:51;10.17;;;2.23;;
9675;SDS011;4876;42.656;23.292;2022-10-18T14:37:24;13.27;;;2.73;;
9675;SDS011;4876;42.656;23.292;2022-10-18T14:39:52;19.40;;;3.47;;
9675;SDS011;4876;42.656;23.292;2022-10-18T14:42:20;3.63;;;2.73;;
9675;SDS011;4876;42.656;23.292;2022-10-18T14:44:49;8.90;;;2.87;;
9675;SDS011;4876;42.656;23.292;2022-10-18T14:47:16;12.23;;;2.73;;
9675;SDS011;4876;42.656;23.292;2022-10-18T14:49:46;8.53;;;3.10;;
9675;SDS011;4876;42.656;23.292;2022-10-18T14:52:15;9.40;;;3.60;;
9675;SDS011;4876;42.656;23.292;2022-10-18T14:54:45;13.03;;;3.23;;
9675;SDS011;4876;42.656;23.292;2022-10-18T14:57:15;17.60;;;2.60;;
9675;SDS011;4876;42.656;23.292;2022-10-18T14:59:45;16.57;;;3.50;;
9675;SDS011;4876;42.656;23.292;2022-10-18T15:02:16;3.47;;;2.10;;
9675;SDS011;4876;42.656;23.292;2022-10-18T15:04:52;7.60;;;3.23;;
9675;SDS011;4876;42.656;23.292;2022-10-18T15:07:21;7.43;;;2.50;;
9675;SDS011;4876;42.656;23.292;2022-10-18T15:09:50;3.97;;;1.93;;
9675;SDS011;4876;42.656;23.292;2022-10-18T15:12:18;7.23;;;2.30;;
9675;SDS011;4876;42.656;23.292;2022-10-18T15:14:45;10.23;;;2.60;;
9675;SDS011;4876;42.656;23.292;2022-10-18T15:17:14;4.73;;;2.30;;
9675;SDS011;4876;42.656;23.292;2022-10-18T15:19:52;8.13;;;3.30;;
9675;SDS011;4876;42.656;23.292;2022-10-18T15:22:21;4.10;;;2.70;;
9675;SDS011;4876;42.656;23.292;2022-10-18T15:25:04;4.30;;;2.83;;
9675;SDS011;4876;42.656;23.292;2022-10-18T15:27:37;4.67;;;2.33;;
9675;SDS011;4876;42.656;23.292;2022-10-18T15:30:05;8.73;;;4.03;;
9675;SDS011;4876;42.656;23.292;2022-10-18T15:32:35;4.70;;;2.70;;
9675;SDS011;4876;42.656;23.292;2022-10-18T15:35:06;3.80;;;2.10;;
9675;SDS011;4876;42.656;23.292;2022-10-18T15:37:38;3.53;;;2.13;;
9675;SDS011;4876;42.656;23.292;2022-10-18T15:43:05;5.23;;;2.70;;